createdAt,value
2023-01-13T00:01:11.113Z,17.40
2023-01-13T00:06:03.847Z,14.32
2023-01-13T00:10:55.442Z,8.98
2023-01-13T00:15:58.558Z,12.18
2023-01-13T00:21:02.416Z,10.50
2023-01-13T00:25:56.674Z,8.98
2023-01-13T00:30:48.316Z,19.23
2023-01-13T00:35:39.977Z,16.70
2023-01-13T00:40:31.814Z,15.38
2023-01-13T00:45:23.536Z,14.73
2023-01-13T00:50:15.408Z,13.95
2023-01-13T00:55:07.363Z,16.98
2023-01-13T00:59:58.949Z,13.07
2023-01-13T01:04:50.632Z,7.47
2023-01-13T01:09:42.450Z,14.27
2023-01-13T01:14:34.558Z,18.05
2023-01-13T01:19:26.212Z,7.38
2023-01-13T01:24:17.928Z,11.95
2023-01-13T01:29:13.842Z,14.20
2023-01-13T01:34:05.533Z,18.98
2023-01-13T01:38:58.782Z,13.68
2023-01-13T01:44:13.369Z,11.20
2023-01-13T01:49:26.200Z,12.32
2023-01-13T01:54:24.522Z,12.98
2023-01-13T01:59:16.561Z,8.48
2023-01-13T02:04:30.778Z,12.32
2023-01-13T02:09:22.455Z,10.63
2023-01-13T02:14:14.398Z,13.10
2023-01-13T02:19:33.155Z,15.23
2023-01-13T02:24:56.628Z,9.70
2023-01-13T02:30:25.917Z,5.55
2023-01-13T02:35:29.491Z,11.13
2023-01-13T02:40:39.772Z,10.93
2023-01-13T02:45:40.114Z,8.40
2023-01-13T02:50:44.528Z,15.02
2023-01-13T02:55:46.984Z,11.80
2023-01-13T03:00:39.303Z,12.65
2023-01-13T03:05:33.309Z,13.15
2023-01-13T03:10:27.907Z,13.25
2023-01-13T03:15:29.325Z,14.25
2023-01-13T03:20:33.554Z,12.27
2023-01-13T03:25:44.768Z,11.23
2023-01-13T03:30:39.765Z,6.90
2023-01-13T03:35:36.783Z,11.23
2023-01-13T03:40:33.684Z,6.75
2023-01-13T03:45:26.351Z,8.00
2023-01-13T03:50:32.663Z,11.73
2023-01-13T03:55:33.591Z,8.30
2023-01-13T04:00:30.038Z,10.00
2023-01-13T04:05:22.443Z,14.43
2023-01-13T04:10:19.716Z,9.20
2023-01-13T04:15:12.727Z,7.18
2023-01-13T04:20:05.000Z,8.85
2023-01-13T04:24:56.876Z,9.25
2023-01-13T04:29:48.468Z,9.10
2023-01-13T04:34:40.028Z,8.55
2023-01-13T04:39:31.719Z,6.45
2023-01-13T04:44:23.373Z,9.32
2023-01-13T04:49:15.128Z,6.07
2023-01-13T04:54:06.843Z,12.90
2023-01-13T04:58:58.502Z,6.18
2023-01-13T05:03:50.038Z,4.97
2023-01-13T05:08:41.744Z,2.30
2023-01-13T05:20:27.471Z,5.88
2023-01-13T05:25:27.005Z,5.65
2023-01-13T05:30:19.491Z,7.10
2023-01-13T05:35:11.356Z,3.28
2023-01-13T05:40:24.973Z,4.72
2023-01-13T05:45:22.912Z,1.70
2023-01-13T05:50:45.608Z,2.20
2023-01-13T05:55:41.404Z,1.80
2023-01-13T06:00:33.165Z,1.80
2023-01-13T06:05:24.739Z,11.25
2023-01-13T06:10:17.287Z,0.60
2023-01-13T06:15:09.131Z,1.15
2023-01-13T06:20:00.839Z,0.93
2023-01-13T06:24:54.265Z,0.60
2023-01-13T06:29:45.921Z,0.40
2023-01-13T06:34:38.887Z,1.95
2023-01-13T06:39:31.772Z,1.48
2023-01-13T06:44:24.542Z,0.20
2023-01-13T06:49:16.162Z,1.23
2023-01-13T06:54:07.859Z,1.20
2023-01-13T06:58:59.524Z,0.30
2023-01-13T07:03:51.654Z,0.20
2023-01-13T07:08:43.323Z,0.65
2023-01-13T07:13:54.192Z,2.75
2023-01-13T07:18:45.819Z,1.85
2023-01-13T07:23:40.187Z,0.68
2023-01-13T07:28:32.008Z,1.75
2023-01-13T07:33:23.812Z,3.30
2023-01-13T07:38:15.913Z,0.32
2023-01-13T07:43:26.146Z,0.70
2023-01-13T07:48:17.742Z,2.30
2023-01-13T07:53:09.535Z,3.17
2023-01-13T07:58:01.082Z,1.35
2023-01-13T08:02:55.781Z,0.82
2023-01-13T08:07:47.338Z,2.22
2023-01-13T08:12:57.763Z,2.92
2023-01-13T08:17:49.345Z,3.60
2023-01-13T08:22:41.011Z,3.55
2023-01-13T08:27:32.835Z,2.55
2023-01-13T08:32:24.626Z,5.88
2023-01-13T08:37:16.546Z,2.50
2023-01-13T08:42:08.283Z,6.47
2023-01-13T08:47:00.537Z,3.30
2023-01-13T08:51:52.808Z,2.60
2023-01-13T08:56:45.683Z,1.55
2023-01-13T09:01:39.356Z,1.70
2023-01-13T09:06:31.136Z,9.65
2023-01-13T09:11:49.267Z,4.43
2023-01-13T09:16:40.873Z,2.13
2023-01-13T09:21:32.649Z,1.58
2023-01-13T09:26:24.269Z,5.88
2023-01-13T09:31:15.942Z,3.10
2023-01-13T09:36:07.984Z,2.88
2023-01-13T09:40:59.657Z,2.75
2023-01-13T09:46:36.998Z,2.08
2023-01-13T09:51:36.756Z,3.78
2023-01-13T09:56:28.432Z,5.88
2023-01-13T10:01:32.396Z,3.08
2023-01-13T10:06:49.920Z,5.50
2023-01-13T10:12:24.326Z,6.28
2023-01-13T10:17:37.759Z,4.32
2023-01-13T10:22:41.276Z,3.15
2023-01-13T10:27:38.394Z,3.85
2023-01-13T10:32:30.026Z,2.03
2023-01-13T10:37:25.955Z,4.25
2023-01-13T10:42:22.051Z,3.63
2023-01-13T10:47:30.468Z,1.80
2023-01-13T10:57:24.301Z,4.40
2023-01-13T11:02:27.399Z,3.20
2023-01-13T11:07:38.459Z,4.00
2023-01-13T11:12:33.183Z,6.57
2023-01-13T11:18:00.831Z,4.95
2023-01-13T11:22:59.964Z,4.82
2023-01-13T11:28:03.751Z,5.07
2023-01-13T11:33:11.616Z,3.58
2023-01-13T11:38:20.076Z,4.65
2023-01-13T11:48:20.952Z,4.78
2023-01-13T11:53:44.810Z,8.70
2023-01-13T11:59:08.665Z,4.50
2023-01-13T12:04:25.381Z,4.85
2023-01-13T12:09:44.678Z,5.55
2023-01-13T12:14:57.521Z,2.97
2023-01-13T12:19:51.169Z,4.63
2023-01-13T12:24:54.492Z,1.42
2023-01-13T12:29:48.955Z,3.00
2023-01-13T12:35:09.571Z,2.28
2023-01-13T12:40:47.096Z,3.20
2023-01-13T12:45:38.745Z,2.65
2023-01-13T12:50:30.348Z,1.48
2023-01-13T12:55:32.655Z,2.70
2023-01-13T13:00:31.086Z,4.50
2023-01-13T13:05:22.717Z,2.80
2023-01-13T13:10:27.475Z,8.88
2023-01-13T13:15:22.817Z,6.05
2023-01-13T13:20:54.223Z,4.78
2023-01-13T13:26:20.292Z,6.50
2023-01-13T13:31:44.477Z,4.63
2023-01-13T13:36:57.376Z,5.35
2023-01-13T13:42:12.523Z,5.85
2023-01-13T13:47:06.411Z,6.75
2023-01-13T13:52:10.946Z,2.65
2023-01-13T13:57:02.944Z,5.90
2023-01-13T14:02:04.058Z,7.65
2023-01-13T14:06:57.044Z,8.00
2023-01-13T14:12:01.452Z,2.97
2023-01-13T14:16:55.022Z,10.13
2023-01-13T14:21:48.290Z,4.03
2023-01-13T14:26:40.331Z,5.15
2023-01-13T14:31:32.669Z,6.35
2023-01-13T14:36:33.339Z,6.45
2023-01-13T14:41:28.372Z,6.50
2023-01-13T14:46:23.168Z,7.63
2023-01-13T14:51:23.616Z,7.50
2023-01-13T14:56:47.327Z,8.05
2023-01-13T15:01:39.612Z,8.73
2023-01-13T15:06:31.258Z,11.55
2023-01-13T15:11:27.259Z,5.68
2023-01-13T15:16:22.490Z,8.80
2023-01-13T15:21:15.826Z,6.15
2023-01-13T15:26:23.674Z,5.47
2023-01-13T15:31:15.732Z,7.95
2023-01-13T15:36:20.065Z,5.88
2023-01-13T15:41:13.499Z,7.40
2023-01-13T15:46:33.499Z,9.07
2023-01-13T15:51:25.202Z,9.13
2023-01-13T15:56:24.804Z,10.25
2023-01-13T16:01:17.335Z,9.43
2023-01-13T16:06:16.776Z,8.27
2023-01-13T16:11:10.214Z,12.15
2023-01-13T16:16:02.318Z,6.60
2023-01-13T16:20:55.242Z,4.65
2023-01-13T16:25:47.758Z,7.55
2023-01-13T16:30:40.459Z,4.78
2023-01-13T16:35:32.360Z,11.82
2023-01-13T16:40:31.106Z,4.45
2023-01-13T16:45:23.054Z,5.53
2023-01-13T16:50:36.127Z,10.07
2023-01-13T16:55:27.836Z,7.43
2023-01-13T17:00:20.292Z,5.55
2023-01-13T17:05:13.553Z,7.10
2023-01-13T17:10:06.031Z,4.72
2023-01-13T17:14:57.632Z,14.80
2023-01-13T17:19:50.095Z,12.77
2023-01-13T17:24:42.287Z,6.35
2023-01-13T17:29:34.212Z,8.00
2023-01-13T17:34:27.549Z,9.75
2023-01-13T17:39:23.714Z,13.38
2023-01-13T17:44:17.129Z,11.38
2023-01-13T17:49:11.309Z,18.45
2023-01-13T17:54:03.182Z,10.68
2023-01-13T17:58:54.889Z,8.25
2023-01-13T18:03:47.207Z,10.02
2023-01-13T18:08:39.466Z,15.55
2023-01-13T18:13:34.359Z,8.65
2023-01-13T18:18:26.098Z,9.95
2023-01-13T18:23:38.639Z,11.73
2023-01-13T18:28:30.539Z,18.13
2023-01-13T18:33:22.736Z,10.38
2023-01-13T18:38:26.362Z,19.80
2023-01-13T18:43:18.191Z,19.70
2023-01-13T18:48:10.773Z,14.32
2023-01-13T18:53:03.253Z,14.63
2023-01-13T18:57:56.373Z,12.73
2023-01-13T19:02:50.813Z,22.45
2023-01-13T19:07:46.532Z,12.35
2023-01-13T19:12:38.313Z,13.52
2023-01-13T19:17:34.779Z,14.60
2023-01-13T19:22:32.870Z,11.27
2023-01-13T19:27:25.540Z,17.38
2023-01-13T19:32:17.584Z,14.07
2023-01-13T19:37:09.840Z,16.10
2023-01-13T19:42:20.540Z,11.88
2023-01-13T19:47:12.182Z,15.77
2023-01-13T19:52:04.119Z,18.30
2023-01-13T19:56:55.818Z,12.85
2023-01-13T20:01:47.898Z,23.52
2023-01-13T20:06:41.667Z,8.85
2023-01-13T20:11:34.248Z,13.32
2023-01-13T20:16:28.106Z,12.45
2023-01-13T20:21:26.187Z,10.57
2023-01-13T20:26:21.907Z,8.77
2023-01-13T20:31:16.291Z,12.88
2023-01-13T20:36:16.815Z,12.13
2023-01-13T20:41:27.778Z,10.90
2023-01-13T20:46:21.462Z,16.67
2023-01-13T20:51:14.820Z,11.32
2023-01-13T20:56:09.660Z,11.93
2023-01-13T21:01:03.046Z,14.23
2023-01-13T21:05:58.747Z,14.80
2023-01-13T21:10:51.422Z,20.33
2023-01-13T21:15:49.212Z,13.93
2023-01-13T21:20:41.222Z,12.73
2023-01-13T21:25:35.399Z,10.55
2023-01-13T21:30:27.275Z,13.18
2023-01-13T21:35:18.891Z,12.77
2023-01-13T21:40:12.825Z,15.20
2023-01-13T21:45:23.472Z,15.27
2023-01-13T21:50:18.278Z,14.02
2023-01-13T21:55:17.311Z,13.43
2023-01-13T22:00:09.523Z,10.75
2023-01-13T22:05:07.226Z,14.25
2023-01-13T22:10:02.016Z,11.15
2023-01-13T22:14:55.431Z,13.05
2023-01-13T22:19:52.882Z,10.50
2023-01-13T22:24:49.835Z,8.97
2023-01-13T22:29:41.659Z,13.80
2023-01-13T22:34:33.407Z,11.23
2023-01-13T22:39:25.240Z,14.25
2023-01-13T22:44:16.891Z,15.77
2023-01-13T22:49:09.385Z,7.35
2023-01-13T22:54:00.961Z,13.40
2023-01-13T22:58:57.134Z,12.82
2023-01-13T23:03:48.802Z,13.80
2023-01-13T23:08:40.451Z,14.73
2023-01-13T23:13:32.279Z,12.38
2023-01-13T23:18:25.515Z,11.80
2023-01-13T23:23:17.206Z,9.98
2023-01-13T23:28:10.865Z,9.57
2023-01-13T23:33:02.816Z,11.48
2023-01-13T23:37:54.426Z,15.98
2023-01-13T23:42:46.142Z,9.60
2023-01-13T23:47:38.022Z,9.75
2023-01-13T23:52:29.727Z,11.15
2023-01-13T23:57:21.483Z,7.18
